Huvudsida
METAR-TAF:

METAR-TAF

Flygplatser :

Puerto Princesa, Filippinerna

latitud: 09-44-32N, longitud: 118-45-31E, höjd: 22 m

Aktuellt väderrapport

Denna rapport gjordes för 1 timme och 33 minuter sedan, klockan 00:00 UTC
Vind 6 kt från syd/sydväst
Temperatur 28°C
Fuktighet 79%
Tryck 1009 hPa
Sikt 10 km eller mer
Få moln på en höjd av 1900 ft

METAR: RPVP 220000Z 21006KT 9999 FEW019 28/24 Q1009 RMK A2980

Tid: 09:33 (01:33 UTC)

Väderprognos

Denna rapport gjordes för 2 timmar och 33 minuter sedan, klockan 23:00 UTC
Prognos gäller från 22 kl. 00 UTC till 22 kl. 24 UTC
Vind 6 kt från syd
Sikt 10 km eller mer
Få moln på en höjd av 1900 ft
Spridda moln på en höjd av 25000 ft
Temporärt
från 22 kl. 02 UTC till 22 kl. 08 UTC
Vind 15 kt från syd
Få moln på en höjd av 1700 ft, Cumulonimbus.
Brutna moln på en höjd av 8000 ft

TAF: RPVP 212300Z 2200/2224 18006KT 9999 FEW019 SCT250 TEMPO 2202/2208 18015KT FEW017CB BKN080

Aktuella väderrapporter och prognoser från 4000 flygplatser (METAR- och TAF-rapporter).

De tillgängliga stationerna syns som gula och röda prickar på kartan.

För musen över prickarna för att se namnen på stationerna.

Klicka sedan för att få väderrapporter och prognoser.

För att ändra kartan: Klicka på de gröna knapparna med ett svart kors på för att zooma in; den gröna knappen med ett streck på för att zooma ut; eller på de gröna pilarna för angränsande kartor.


METAR-TAF: